createdAt,value
2023-04-07T00:03:27.371Z,93.00
2023-04-07T00:07:30.325Z,93.00
2023-04-07T00:11:33.106Z,93.40
2023-04-07T00:15:35.825Z,93.60
2023-04-07T00:19:39.878Z,93.80
2023-04-07T00:23:42.782Z,93.90
2023-04-07T00:27:45.476Z,94.10
2023-04-07T00:31:48.315Z,94.30
2023-04-07T00:35:54.278Z,94.60
2023-04-07T00:39:58.027Z,94.80
2023-04-07T00:44:00.843Z,95.10
2023-04-07T00:48:03.966Z,95.20
2023-04-07T00:52:11.291Z,95.40
2023-04-07T00:56:14.147Z,95.50
2023-04-07T01:00:17.462Z,95.60
2023-04-07T01:04:28.193Z,96.10
2023-04-07T01:08:39.369Z,96.20
2023-04-07T01:12:49.160Z,96.60
2023-04-07T01:16:57.282Z,96.90
2023-04-07T01:21:05.566Z,97.10
2023-04-07T01:25:24.088Z,97.20
2023-04-07T01:29:36.542Z,97.70
2023-04-07T01:33:40.734Z,97.80
2023-04-07T01:37:46.420Z,98.10
2023-04-07T01:41:51.380Z,98.60
2023-04-07T01:45:56.209Z,98.70
2023-04-07T01:49:59.931Z,99.10
2023-04-07T01:54:03.513Z,99.40
2023-04-07T01:58:09.272Z,99.90
2023-04-07T02:02:16.886Z,99.90
2023-04-07T02:06:23.985Z,99.90
2023-04-07T02:10:29.178Z,99.90
2023-04-07T02:14:36.808Z,99.90
2023-04-07T02:18:46.632Z,99.90
2023-04-07T02:22:49.691Z,99.90
2023-04-07T02:26:53.641Z,99.90
2023-04-07T02:30:56.355Z,99.90
2023-04-07T02:35:00.650Z,99.90
2023-04-07T02:39:03.703Z,99.90
2023-04-07T02:43:06.429Z,99.90
2023-04-07T02:47:09.143Z,99.90
2023-04-07T02:51:13.186Z,99.90
2023-04-07T02:55:15.944Z,99.90
2023-04-07T02:59:18.821Z,99.90
2023-04-07T03:03:21.883Z,99.90
2023-04-07T03:07:42.540Z,99.90
2023-04-07T03:11:46.474Z,99.90
2023-04-07T03:15:49.288Z,99.90
2023-04-07T03:19:54.388Z,99.90
2023-04-07T03:23:58.658Z,99.90
2023-04-07T03:28:01.427Z,99.90
2023-04-07T03:32:08.881Z,99.90
2023-04-07T03:36:12.034Z,99.90
2023-04-07T03:40:17.692Z,99.90
2023-04-07T03:44:21.403Z,99.90
2023-04-07T03:48:24.293Z,99.90
2023-04-07T03:52:38.051Z,99.90
2023-04-07T03:56:51.439Z,99.90
2023-04-07T04:01:46.076Z,99.90
2023-04-07T04:19:17.815Z,99.90
2023-04-07T04:59:04.264Z,99.90
2023-04-07T05:10:01.633Z,99.90
2023-04-07T05:19:54.388Z,99.90
2023-04-07T05:24:10.492Z,99.90
2023-04-07T05:28:16.248Z,99.90
2023-04-07T05:32:20.251Z,99.90
2023-04-07T05:36:25.609Z,99.90
2023-04-07T05:40:32.000Z,99.90
2023-04-07T05:44:39.829Z,99.90
2023-04-07T05:48:45.986Z,99.90
2023-04-07T05:52:55.984Z,99.90
2023-04-07T05:57:06.326Z,99.90
2023-04-07T06:01:10.931Z,99.90
2023-04-07T06:05:17.274Z,99.90
2023-04-07T06:09:28.396Z,99.90
2023-04-07T06:13:34.451Z,99.90
2023-04-07T06:17:39.888Z,99.90
2023-04-07T06:21:47.082Z,99.90
2023-04-07T06:25:55.954Z,99.90
2023-04-07T06:30:02.884Z,99.90
2023-04-07T06:34:07.856Z,99.90
2023-04-07T06:38:14.299Z,99.90
2023-04-07T06:42:24.275Z,99.90
2023-04-07T06:46:43.191Z,99.90
2023-04-07T06:50:50.509Z,99.90
2023-04-07T06:54:56.142Z,99.90
2023-04-07T06:59:04.214Z,99.90
2023-04-07T07:03:11.971Z,99.90
2023-04-07T07:07:16.949Z,99.90
2023-04-07T07:11:19.945Z,99.90
2023-04-07T07:15:31.090Z,99.90
2023-04-07T07:19:37.714Z,99.90
2023-04-07T07:23:45.364Z,99.90
2023-04-07T07:27:54.957Z,99.90
2023-04-07T07:32:04.595Z,99.90
2023-04-07T07:36:11.072Z,99.90
2023-04-07T07:40:18.853Z,99.90
2023-04-07T07:44:23.979Z,99.90
2023-04-07T07:48:29.153Z,99.90
2023-04-07T07:52:35.894Z,99.90
2023-04-07T07:56:42.698Z,99.90
2023-04-07T08:00:47.865Z,99.90
2023-04-07T08:04:56.796Z,99.90
2023-04-07T08:09:02.764Z,99.90
2023-04-07T08:13:08.023Z,99.90
2023-04-07T08:17:15.104Z,99.90
2023-04-07T08:21:21.771Z,99.90
2023-04-07T08:25:25.435Z,99.70
2023-04-07T08:29:30.509Z,99.90
2023-04-07T08:33:33.918Z,99.80
2023-04-07T08:37:41.795Z,99.90
2023-04-07T08:41:49.442Z,99.90
2023-04-07T08:45:56.878Z,99.80
2023-04-07T08:50:06.317Z,99.40
2023-04-07T08:54:14.815Z,99.40
2023-04-07T08:58:21.296Z,99.30
2023-04-07T09:02:25.836Z,99.40
2023-04-07T09:06:30.967Z,98.50
2023-04-07T09:10:40.806Z,98.60
2023-04-07T09:14:46.048Z,98.60
2023-04-07T09:18:55.921Z,98.40
2023-04-07T09:23:00.835Z,98.50
2023-04-07T09:27:16.919Z,97.60
2023-04-07T09:31:21.914Z,97.80
2023-04-07T09:35:28.933Z,98.00
2023-04-07T09:39:34.632Z,97.50
2023-04-07T09:43:43.675Z,97.70
2023-04-07T09:47:49.210Z,97.40
2023-04-07T09:51:58.520Z,97.90
2023-04-07T09:56:05.323Z,97.70
2023-04-07T10:00:17.060Z,97.70
2023-04-07T10:04:20.171Z,97.70
2023-04-07T10:08:23.467Z,97.70
2023-04-07T10:12:27.586Z,96.80
2023-04-07T10:16:31.942Z,97.30
2023-04-07T10:20:34.850Z,95.90
2023-04-07T10:24:48.007Z,96.50
2023-04-07T10:28:56.194Z,96.90
2023-04-07T10:33:00.549Z,96.10
2023-04-07T10:37:13.540Z,96.30
2023-04-07T10:41:36.596Z,95.80
2023-04-07T10:45:59.202Z,95.40
2023-04-07T10:50:23.695Z,95.50
2023-04-07T10:54:29.323Z,95.20
2023-04-07T10:58:33.197Z,95.50
2023-04-07T11:02:36.792Z,94.80
2023-04-07T11:06:49.057Z,95.30
2023-04-07T11:10:51.766Z,95.10
2023-04-07T11:14:54.507Z,95.00
2023-04-07T11:18:58.550Z,94.40
2023-04-07T11:23:02.604Z,94.10
2023-04-07T11:27:06.466Z,94.60
2023-04-07T11:31:10.279Z,93.90
2023-04-07T11:35:13.506Z,93.50
2023-04-07T11:39:22.327Z,92.60
2023-04-07T11:43:27.013Z,91.50
2023-04-07T11:47:36.824Z,92.20
2023-04-07T11:51:39.830Z,92.20
2023-04-07T11:55:44.087Z,91.30
2023-04-07T11:59:46.799Z,91.80
2023-04-07T12:03:58.718Z,90.00
2023-04-07T12:08:01.738Z,88.10
2023-04-07T12:12:07.560Z,87.80
2023-04-07T12:16:11.061Z,86.30
2023-04-07T12:20:14.270Z,88.20
2023-04-07T12:24:17.010Z,88.40
2023-04-07T12:28:21.114Z,87.30
2023-04-07T12:32:23.839Z,87.10
2023-04-07T12:36:27.483Z,84.30
2023-04-07T12:40:31.572Z,85.20
2023-04-07T12:44:35.642Z,85.40
2023-04-07T12:48:38.396Z,82.80
2023-04-07T12:52:41.107Z,82.60
2023-04-07T12:56:43.876Z,82.60
2023-04-07T13:00:48.497Z,81.10
2023-04-07T13:04:51.259Z,79.90
2023-04-07T13:08:53.996Z,79.20
2023-04-07T13:12:56.744Z,78.60
2023-04-07T13:17:00.978Z,77.00
2023-04-07T13:25:10.456Z,76.70
2023-04-07T13:29:13.252Z,76.90
2023-04-07T13:33:17.691Z,75.10
2023-04-07T13:37:20.796Z,75.40
2023-04-07T13:41:23.522Z,74.90
2023-04-07T13:45:27.026Z,74.00
2023-04-07T13:49:31.343Z,74.20
2023-04-07T13:53:34.230Z,73.70
2023-04-07T13:57:37.070Z,74.00
2023-04-07T14:01:40.214Z,72.60
2023-04-07T14:05:44.274Z,71.80
2023-04-07T14:09:48.179Z,71.30
2023-04-07T14:13:52.965Z,70.70
2023-04-07T14:17:55.838Z,70.60
2023-04-07T14:22:00.970Z,67.00
2023-04-07T14:26:03.798Z,68.20
2023-04-07T14:30:08.284Z,71.00
2023-04-07T14:34:11.120Z,71.00
2023-04-07T14:38:15.200Z,72.10
2023-04-07T14:42:18.025Z,73.30
2023-04-07T14:46:20.732Z,76.00
2023-04-07T14:50:24.561Z,76.10
2023-04-07T14:54:28.627Z,76.30
2023-04-07T14:58:32.444Z,77.60
2023-04-07T15:02:35.810Z,78.20
2023-04-07T15:06:41.884Z,78.40
2023-04-07T15:10:45.902Z,78.70
2023-04-07T15:14:52.125Z,79.50
2023-04-07T15:18:55.382Z,79.10
2023-04-07T15:23:00.337Z,79.50
2023-04-07T15:27:04.584Z,79.80
2023-04-07T15:31:10.172Z,81.00
2023-04-07T15:35:13.180Z,80.60
2023-04-07T15:39:16.950Z,79.90
2023-04-07T15:43:21.076Z,76.50
2023-04-07T15:47:23.811Z,74.30
2023-04-07T15:51:27.915Z,72.70
2023-04-07T15:55:30.858Z,71.70
2023-04-07T15:59:36.010Z,71.20
2023-04-07T16:03:38.870Z,69.80
2023-04-07T16:07:42.166Z,68.60
2023-04-07T16:11:47.036Z,68.00
2023-04-07T16:15:52.820Z,66.80
2023-04-07T16:19:58.895Z,66.10
2023-04-07T16:24:01.697Z,67.00
2023-04-07T16:28:04.493Z,66.50
2023-04-07T16:32:08.809Z,67.30
2023-04-07T16:36:11.663Z,67.30
2023-04-07T16:40:14.603Z,67.10
2023-04-07T16:44:17.394Z,67.50
2023-04-07T16:48:21.646Z,68.90
2023-04-07T16:52:24.860Z,68.40
2023-04-07T16:56:27.755Z,68.00
2023-04-07T17:00:30.764Z,68.70
2023-04-07T17:04:35.190Z,68.80
2023-04-07T17:08:39.333Z,69.70
2023-04-07T17:17:11.821Z,71.80
2023-04-07T17:21:16.654Z,72.90
2023-04-07T17:25:27.530Z,74.80
2023-04-07T17:29:33.729Z,76.60
2023-04-07T17:33:36.600Z,78.10
2023-04-07T17:37:40.651Z,79.50
2023-04-07T17:41:44.500Z,80.60
2023-04-07T17:45:47.533Z,80.80
2023-04-07T17:49:56.264Z,82.00
2023-04-07T18:00:30.865Z,83.40
2023-04-07T18:05:52.772Z,84.60
